Nearby METAR Reports

 

KADS - Dallas/Addison, Texas, USA
Distance from station: SSW 10mi, 16km
Updated: Mon, 26-Jun-2017 5:15am CDT
Clear
Clear
 Wind from ESE
Wind: ESE 5 mph , 7 km/h
Temperature: 73°F , 23°C
Dew Point: 61°F , 16°C
Humidity: 65%
Barometer: 30.16 inHg , 1021.3 hPa
Clouds: Clear
Visibility: 10 miles , 16 km
2017/06/26 10:15 KADS 261015Z AUTO 11004KT 10SM CLR 23/16 A3016 RMK AO2 T02270157
KTKI - Mckinney, Texas, USA
Distance from station: ENE 11mi, 18km
Updated: Mon, 26-Jun-2017 4:53am CDT
Clear
Clear
 Wind from calm
Wind: Calm
Temperature: 70°F , 21°C
Dew Point: 66°F , 19°C
Humidity: 88%
Barometer: 30.15 inHg , 1021 hPa
Clouds: Clear
Visibility: 10 miles , 16 km
2017/06/26 09:53 KTKI 260953Z AUTO 00000KT 10SM CLR 21/19 A3015 RMK AO2 SLP205 T02110189
 
KDAL - Dallas/Love Fld, Texas, USA
Distance from station: SSW 18mi, 30km
Updated: Mon, 26-Jun-2017 4:53am CDT
Partly cloudy
Partly cloudy
 Wind from ESE
Wind: ESE 7 mph , 11 km/h
Temperature: 73°F , 23°C
Dew Point: 63°F , 17°C
Humidity: 69%
Barometer: 30.14 inHg , 1020.7 hPa
Clouds: Partly cloudy
Visibility: 10 miles , 16 km
Cloud details: Few Clouds 5500 ft
Partly cloudy 30000 ft
2017/06/26 09:53 KDAL 260953Z 11006KT 10SM FEW055 SCT300 23/17 A3014 RMK AO2 SLP197 T02330167 $
KDFW - Dallas/Ft Worth, Texas, USA
Distance from station: SW 21mi, 34km
Updated: Mon, 26-Jun-2017 4:53am CDT
Partly cloudy
Partly cloudy
 Wind from SE
Wind: SE 7 mph , 11 km/h
Temperature: 73°F , 23°C
Dew Point: 64°F , 18°C
Humidity: 74%
Barometer: 30.12 inHg , 1020 hPa
Clouds: Partly cloudy
Visibility: 10 miles , 16 km
Cloud details: Few Clouds 5000 ft
Partly cloudy 30000 ft
2017/06/26 09:53 KDFW 260953Z 13006KT 10SM FEW050 SCT300 23/18 A3012 RMK AO2 SLP192 T02280183
 
KF46 - Rockwall, Texas, USA
Distance from station: ESE 22mi, 35km
Updated: Mon, 26-Jun-2017 5:15am CDT
Clear
Clear
 Wind from E
Wind: E 5 mph , 7 km/h
Temperature: 68°F , 20°C
Dew Point: 63°F , 17°C
Humidity: 83%
Barometer: 30.15 inHg , 1021 hPa
Clouds: Clear
Visibility: 10 miles , 16 km
2017/06/26 10:15 KF46 261015Z AUTO 09004KT 10SM CLR 20/17 A3015 RMK AO2 T02020174
KDTO - Denton, Texas, USA
Distance from station: WNW 27mi, 43km
Updated: Mon, 26-Jun-2017 4:53am CDT
Clear
Clear
 Wind from SE
Wind: SE 3 mph , 6 km/h
Temperature: 73°F , 23°C
Dew Point: 64°F , 18°C
Humidity: 74%
Barometer: 30.13 inHg , 1020.3 hPa
Clouds: Clear
Visibility: 10 miles , 16 km
2017/06/26 09:53 KDTO 260953Z AUTO 13003KT 10SM CLR 23/18 A3013 RMK AO2 SLP194 T02280183 $
 
KHQZ - Mesquite, Texas, USA
Distance from station: SSE 28mi, 44km
Updated: Mon, 26-Jun-2017 5:15am CDT
Clear
Clear
 Wind from calm
Wind: Calm
Temperature: 68°F , 20°C
Dew Point: 64°F , 18°C
Humidity: 88%
Barometer: 30.15 inHg , 1021 hPa
Clouds: Clear
Visibility: 10 miles , 16 km
2017/06/26 10:15 KHQZ 261015Z AUTO 00000KT 10SM CLR 20/18 A3015 RMK AO1 T02020176
KRBD - Dallas/Redbird, Texas, USA
Distance from station: SSW 30mi, 48km
Updated: Mon, 26-Jun-2017 4:53am CDT
Clear
Clear
 Wind from ESE
Wind: ESE 7 mph , 11 km/h
Temperature: 72°F , 22°C
Dew Point: 66°F , 19°C
Humidity: 83%
Barometer: 30.13 inHg , 1020.3 hPa
Clouds: Clear
Visibility: 10 miles , 16 km
2017/06/26 09:53 KRBD 260953Z AUTO 11006KT 10SM CLR 22/19 A3013 RMK AO2 SLP196 T02220194
 
KGPM - Grand Prairie, Texas, USA
Distance from station: SSW 33mi, 53km
Updated: Mon, 26-Jun-2017 5:15am CDT
Clear
Clear
 Wind from E
Wind: E 3 mph , 6 km/h
Temperature: 72°F , 22°C
Dew Point: 64°F , 18°C
Humidity: 78%
Barometer: 30.15 inHg , 1021 hPa
Clouds: Clear
Visibility: 10 miles , 16 km
2017/06/26 10:15 KGPM 261015Z AUTO 08003KT 10SM CLR 22/18 A3015 RMK AO2 T02220183
KAFW - Ft Worth/Allianc, Texas, USA
Distance from station: WSW 34mi, 55km
Updated: Mon, 26-Jun-2017 4:53am CDT
Partly cloudy
Partly cloudy
 Wind from SE
Wind: SE 8 mph , 13 km/h
Temperature: 73°F , 23°C
Dew Point: 66°F , 19°C
Humidity: 78%
Barometer: 30.13 inHg , 1020.3 hPa
Clouds: Partly cloudy
Visibility: 10 miles , 16 km
Cloud details: Few Clouds 5000 ft
Partly cloudy 25000 ft
2017/06/26 09:53 KAFW 260953Z 14007KT 10SM FEW050 SCT250 23/19 A3013 RMK AO2 SLP189 T02280194
 
KLNC - Lancaster, Texas, USA
Distance from station: S 36mi, 58km
Updated: Mon, 26-Jun-2017 5:15am CDT
Overcast
Overcast
 Wind from ENE
Wind: ENE 3 mph , 6 km/h
Temperature: 70°F , 21°C
Dew Point: 66°F , 19°C
Humidity: 88%
Barometer: 30.15 inHg , 1021 hPa
Clouds: Overcast
Visibility: 10 miles , 16 km
Cloud details: Mostly cloudy 4000 ft
Overcast 4700 ft
2017/06/26 10:15 KLNC 261015Z AUTO 07003KT 10SM BKN040 OVC047 21/19 A3015 RMK AO2 T02100190
KGKY - Arlington, Texas, USA
Distance from station: SSW 36mi, 59km
Updated: Mon, 26-Jun-2017 4:53am CDT
Few Clouds
Few Clouds
 Wind from E
Wind: E 5 mph , 7 km/h
Temperature: 73°F , 23°C
Dew Point: 68°F , 20°C
Humidity: 83%
Barometer: 30.13 inHg , 1020.3 hPa
Clouds: Few Clouds
Visibility: 10 miles , 16 km
Cloud details: Few Clouds 5500 ft
2017/06/26 09:53 KGKY 260953Z AUTO 10004KT 10SM FEW055 23/20 A3013 RMK AO2 SLP195 T02280200
 
KTRL - Terrell, Texas, USA
Distance from station: SE 39mi, 63km
Updated: Mon, 26-Jun-2017 4:53am CDT
Clear
Clear
 Wind from ENE
Wind: ENE 3 mph , 6 km/h
Temperature: 70°F , 21°C
Dew Point: 63°F , 17°C
Humidity: 78%
Barometer: 30.14 inHg , 1020.7 hPa
Clouds: Clear
Visibility: 10 miles , 16 km
2017/06/26 09:53 KTRL 260953Z AUTO 06003KT 10SM CLR 21/17 A3014 RMK AO2 SLP201 T02060172
KGVT - Greenville/Major, Texas, USA
Distance from station: E 40mi, 64km
Updated: Mon, 26-Jun-2017 5:15am CDT
Clear
Clear
 Wind from calm
Wind: Calm
Temperature: 70°F , 21°C
Dew Point: 64°F , 18°C
Humidity: 83%
Barometer: 30.16 inHg , 1021.3 hPa
Clouds: Clear
Visibility: 10 miles , 16 km
2017/06/26 10:15 KGVT 261015Z AUTO 00000KT 10SM CLR 21/18 A3016 RMK AO2
 
KFTW - Fort Worth, Texas, USA
Distance from station: WSW 40mi, 65km
Updated: Mon, 26-Jun-2017 4:53am CDT
Clear
Clear
 Wind from SE
Wind: SE 9 mph , 15 km/h
Temperature: 73°F , 23°C
Dew Point: 68°F , 20°C
Humidity: 83%
Barometer: 30.13 inHg , 1020.3 hPa
Clouds: Clear
Visibility: 10 miles , 16 km
2017/06/26 09:53 KFTW 260953Z 13008KT 10SM CLR 23/20 A3013 RMK AO2 SLP193 T02330200
KGYI - Sherman/Denison, Texas, USA
Distance from station: N 43mi, 69km
Updated: Mon, 26-Jun-2017 5:15am CDT
Clear
Clear
 Wind from ESE
Wind: ESE 6 mph , 9 km/h
Temperature: 68°F , 20°C
Dew Point: 63°F , 17°C
Humidity: 83%
Barometer: 30.17 inHg , 1021.7 hPa
Clouds: Clear
Visibility: 10 miles , 16 km
2017/06/26 10:15 KGYI 261015Z AUTO 11005KT 10SM CLR 20/17 A3017 RMK AO2 T01950172
 
KNFW - Fort Worth Nas, Texas, USA
Distance from station: WSW 45mi, 73km
Updated: Mon, 26-Jun-2017 4:52am CDT

 
Barometer: 30.13 inHg , 1020.3 hPa
2017/06/26 09:52 KNFW 260952Z AUTO A3013 RMK AO2 SLP187 PWINO TSNO CHINO N VISNO N $
KGLE - Gainesville, Texas, USA
Distance from station: NW 46mi, 74km
Updated: Mon, 26-Jun-2017 5:15am CDT
Clear
Clear
 Wind from E
Wind: E 5 mph , 7 km/h
Temperature: 66°F , 19°C
Dew Point: 63°F , 17°C
Humidity: 88%
Barometer: 30.17 inHg , 1021.7 hPa
Clouds: Clear
Visibility: 10 miles , 16 km
2017/06/26 10:15 KGLE 261015Z AUTO 10004KT 10SM CLR 19/17 A3017 RMK AO2 T01920168
 
KJWY - Midlothian/Wax, Texas, USA
Distance from station: SSW 46mi, 74km
Updated: Mon, 26-Jun-2017 5:15am CDT
Overcast
Overcast
 Wind from calm
Wind: Calm
Temperature: 70°F , 21°C
Dew Point: 70°F , 21°C
Humidity: 100%
Barometer: 30.15 inHg , 1021 hPa
Clouds: Overcast
Visibility: 10 miles , 16 km
Cloud details: Partly cloudy 3300 ft
Mostly cloudy 4500 ft
Overcast 5500 ft
2017/06/26 10:15 KJWY 261015Z AUTO 00000KT 10SM SCT033 BKN045 OVC055 21/21 A3015 RMK AO2 T02100206
KFWS - Fort Worth/88d, Texas, USA
Distance from station: SW 49mi, 79km
Updated: Mon, 26-Jun-2017 5:15am CDT
Partly cloudy
Partly cloudy
 Wind from calm
Wind: Calm
Temperature: 72°F , 22°C
Dew Point: 68°F , 20°C
Humidity: 88%
Barometer: 30.15 inHg , 1021 hPa
Clouds: Partly cloudy
Visibility: 10 miles , 16 km
Cloud details: Partly cloudy 2200 ft
Partly cloudy 4700 ft
2017/06/26 10:15 KFWS 261015Z AUTO 00000KT 10SM SCT022 SCT047 22/20 A3015 RMK AO2 T02150196